sensor_id;sensor_type;location;lat;lon;timestamp;P1;durP1;ratioP1;P2;durP2;ratioP2
32786;SDS011;19139;49.372;8.580;2024-03-29T00:00:55;2.13;;;0.80;;
32786;SDS011;19139;49.372;8.580;2024-03-29T00:03:21;4.00;;;1.00;;
32786;SDS011;19139;49.372;8.580;2024-03-29T00:05:47;3.00;;;1.10;;
32786;SDS011;19139;49.372;8.580;2024-03-29T00:08:13;3.07;;;1.07;;
32786;SDS011;19139;49.372;8.580;2024-03-29T00:10:39;3.47;;;1.30;;
32786;SDS011;19139;49.372;8.580;2024-03-29T00:13:05;4.40;;;1.20;;
32786;SDS011;19139;49.372;8.580;2024-03-29T00:15:34;2.60;;;1.23;;
32786;SDS011;19139;49.372;8.580;2024-03-29T00:18:00;3.00;;;1.17;;
32786;SDS011;19139;49.372;8.580;2024-03-29T00:20:25;3.33;;;1.43;;
32786;SDS011;19139;49.372;8.580;2024-03-29T00:22:51;3.97;;;1.27;;
32786;SDS011;19139;49.372;8.580;2024-03-29T00:25:17;3.47;;;1.37;;
32786;SDS011;19139;49.372;8.580;2024-03-29T00:27:43;3.33;;;0.90;;
32786;SDS011;19139;49.372;8.580;2024-03-29T00:30:09;1.73;;;1.30;;
32786;SDS011;19139;49.372;8.580;2024-03-29T00:32:35;2.47;;;1.27;;
32786;SDS011;19139;49.372;8.580;2024-03-29T00:35:01;4.73;;;1.33;;
32786;SDS011;19139;49.372;8.580;2024-03-29T00:37:27;1.50;;;0.93;;
32786;SDS011;19139;49.372;8.580;2024-03-29T00:39:53;2.53;;;1.17;;
32786;SDS011;19139;49.372;8.580;2024-03-29T00:42:19;2.47;;;1.40;;
32786;SDS011;19139;49.372;8.580;2024-03-29T00:44:46;2.27;;;1.30;;
32786;SDS011;19139;49.372;8.580;2024-03-29T00:47:12;2.47;;;1.07;;
32786;SDS011;19139;49.372;8.580;2024-03-29T00:49:38;3.93;;;1.10;;
32786;SDS011;19139;49.372;8.580;2024-03-29T00:52:04;3.50;;;1.10;;
32786;SDS011;19139;49.372;8.580;2024-03-29T00:54:31;1.23;;;0.80;;
32786;SDS011;19139;49.372;8.580;2024-03-29T00:56:57;1.93;;;0.87;;
32786;SDS011;19139;49.372;8.580;2024-03-29T00:59:23;3.17;;;1.30;;
32786;SDS011;19139;49.372;8.580;2024-03-29T01:01:49;3.17;;;1.30;;
32786;SDS011;19139;49.372;8.580;2024-03-29T01:04:17;3.97;;;1.10;;
32786;SDS011;19139;49.372;8.580;2024-03-29T01:06:43;2.00;;;1.10;;
32786;SDS011;19139;49.372;8.580;2024-03-29T01:09:09;3.93;;;1.10;;
32786;SDS011;19139;49.372;8.580;2024-03-29T01:11:38;3.27;;;1.10;;
32786;SDS011;19139;49.372;8.580;2024-03-29T01:14:07;2.13;;;0.90;;
32786;SDS011;19139;49.372;8.580;2024-03-29T01:16:33;3.07;;;1.40;;
32786;SDS011;19139;49.372;8.580;2024-03-29T01:18:59;2.53;;;1.07;;
32786;SDS011;19139;49.372;8.580;2024-03-29T01:21:28;6.10;;;1.37;;
32786;SDS011;19139;49.372;8.580;2024-03-29T01:23:54;1.80;;;1.20;;
32786;SDS011;19139;49.372;8.580;2024-03-29T01:26:19;3.07;;;1.37;;
32786;SDS011;19139;49.372;8.580;2024-03-29T01:28:45;1.83;;;1.00;;
32786;SDS011;19139;49.372;8.580;2024-03-29T01:31:12;2.00;;;1.00;;
32786;SDS011;19139;49.372;8.580;2024-03-29T01:33:38;1.43;;;0.80;;
32786;SDS011;19139;49.372;8.580;2024-03-29T01:36:06;2.37;;;1.13;;
32786;SDS011;19139;49.372;8.580;2024-03-29T01:38:32;2.93;;;1.43;;
32786;SDS011;19139;49.372;8.580;2024-03-29T01:40:58;1.70;;;0.70;;
32786;SDS011;19139;49.372;8.580;2024-03-29T01:43:24;2.40;;;1.00;;
32786;SDS011;19139;49.372;8.580;2024-03-29T01:45:53;1.67;;;1.00;;
32786;SDS011;19139;49.372;8.580;2024-03-29T01:48:23;2.70;;;1.00;;
32786;SDS011;19139;49.372;8.580;2024-03-29T01:50:50;3.10;;;1.07;;
32786;SDS011;19139;49.372;8.580;2024-03-29T01:53:20;1.93;;;0.80;;
32786;SDS011;19139;49.372;8.580;2024-03-29T01:55:46;5.07;;;1.43;;
32786;SDS011;19139;49.372;8.580;2024-03-29T01:58:12;2.90;;;0.97;;
32786;SDS011;19139;49.372;8.580;2024-03-29T02:00:41;1.70;;;0.83;;
32786;SDS011;19139;49.372;8.580;2024-03-29T02:03:14;1.77;;;1.13;;
32786;SDS011;19139;49.372;8.580;2024-03-29T02:05:40;2.43;;;1.10;;
32786;SDS011;19139;49.372;8.580;2024-03-29T02:08:07;1.73;;;1.30;;
32786;SDS011;19139;49.372;8.580;2024-03-29T02:10:35;2.03;;;1.40;;
32786;SDS011;19139;49.372;8.580;2024-03-29T02:13:01;3.93;;;1.23;;
32786;SDS011;19139;49.372;8.580;2024-03-29T02:15:30;1.30;;;0.70;;
32786;SDS011;19139;49.372;8.580;2024-03-29T02:17:57;3.57;;;1.10;;
32786;SDS011;19139;49.372;8.580;2024-03-29T02:20:23;2.57;;;0.80;;
32786;SDS011;19139;49.372;8.580;2024-03-29T02:25:35;4.10;;;0.90;;
32786;SDS011;19139;49.372;8.580;2024-03-29T02:28:02;3.53;;;0.80;;
32786;SDS011;19139;49.372;8.580;2024-03-29T02:30:30;1.43;;;0.70;;
32786;SDS011;19139;49.372;8.580;2024-03-29T02:32:59;1.30;;;0.67;;
32786;SDS011;19139;49.372;8.580;2024-03-29T02:35:26;2.97;;;1.40;;
32786;SDS011;19139;49.372;8.580;2024-03-29T02:37:52;2.13;;;1.00;;
32786;SDS011;19139;49.372;8.580;2024-03-29T02:40:19;2.57;;;1.13;;
32786;SDS011;19139;49.372;8.580;2024-03-29T02:42:45;4.00;;;1.30;;
32786;SDS011;19139;49.372;8.580;2024-03-29T02:45:13;4.50;;;1.30;;
32786;SDS011;19139;49.372;8.580;2024-03-29T02:47:38;5.20;;;1.10;;
32786;SDS011;19139;49.372;8.580;2024-03-29T02:50:05;3.63;;;1.20;;
32786;SDS011;19139;49.372;8.580;2024-03-29T02:52:32;2.90;;;1.10;;
32786;SDS011;19139;49.372;8.580;2024-03-29T02:54:57;1.30;;;1.10;;
32786;SDS011;19139;49.372;8.580;2024-03-29T02:57:23;1.40;;;0.80;;
32786;SDS011;19139;49.372;8.580;2024-03-29T02:59:49;3.07;;;1.00;;
32786;SDS011;19139;49.372;8.580;2024-03-29T03:02:15;2.63;;;1.10;;
32786;SDS011;19139;49.372;8.580;2024-03-29T03:04:41;1.17;;;0.80;;
32786;SDS011;19139;49.372;8.580;2024-03-29T03:07:06;1.07;;;0.90;;
32786;SDS011;19139;49.372;8.580;2024-03-29T03:09:51;1.20;;;0.90;;
32786;SDS011;19139;49.372;8.580;2024-03-29T03:12:35;1.97;;;1.00;;
32786;SDS011;19139;49.372;8.580;2024-03-29T03:15:00;1.80;;;0.90;;
32786;SDS011;19139;49.372;8.580;2024-03-29T03:17:27;1.97;;;1.00;;
32786;SDS011;19139;49.372;8.580;2024-03-29T03:19:53;1.00;;;0.90;;
32786;SDS011;19139;49.372;8.580;2024-03-29T03:22:19;1.10;;;0.70;;
32786;SDS011;19139;49.372;8.580;2024-03-29T03:24:45;1.63;;;0.80;;
32786;SDS011;19139;49.372;8.580;2024-03-29T03:27:11;1.63;;;0.70;;
32786;SDS011;19139;49.372;8.580;2024-03-29T03:29:37;1.90;;;0.90;;
32786;SDS011;19139;49.372;8.580;2024-03-29T03:32:04;0.90;;;0.60;;
32786;SDS011;19139;49.372;8.580;2024-03-29T03:34:31;7.37;;;1.10;;
32786;SDS011;19139;49.372;8.580;2024-03-29T03:36:57;3.70;;;0.97;;
32786;SDS011;19139;49.372;8.580;2024-03-29T03:39:23;1.83;;;0.70;;
32786;SDS011;19139;49.372;8.580;2024-03-29T03:41:50;1.17;;;0.87;;
32786;SDS011;19139;49.372;8.580;2024-03-29T03:44:16;2.97;;;1.00;;
32786;SDS011;19139;49.372;8.580;2024-03-29T03:46:42;2.10;;;0.63;;
32786;SDS011;19139;49.372;8.580;2024-03-29T03:49:08;2.10;;;0.67;;
32786;SDS011;19139;49.372;8.580;2024-03-29T03:51:34;2.43;;;0.83;;
32786;SDS011;19139;49.372;8.580;2024-03-29T03:53:59;1.47;;;0.60;;
32786;SDS011;19139;49.372;8.580;2024-03-29T03:56:25;1.33;;;0.57;;
32786;SDS011;19139;49.372;8.580;2024-03-29T03:58:51;1.00;;;0.70;;
32786;SDS011;19139;49.372;8.580;2024-03-29T04:01:17;1.60;;;0.60;;
32786;SDS011;19139;49.372;8.580;2024-03-29T04:03:43;0.97;;;0.50;;
32786;SDS011;19139;49.372;8.580;2024-03-29T04:06:08;1.50;;;0.70;;
32786;SDS011;19139;49.372;8.580;2024-03-29T04:08:34;1.87;;;0.60;;
32786;SDS011;19139;49.372;8.580;2024-03-29T04:11:03;0.90;;;0.60;;
32786;SDS011;19139;49.372;8.580;2024-03-29T04:13:29;1.53;;;0.77;;
32786;SDS011;19139;49.372;8.580;2024-03-29T04:16:02;1.73;;;0.63;;
32786;SDS011;19139;49.372;8.580;2024-03-29T04:18:31;1.63;;;1.00;;
32786;SDS011;19139;49.372;8.580;2024-03-29T04:20:58;0.80;;;0.70;;
32786;SDS011;19139;49.372;8.580;2024-03-29T04:23:28;1.37;;;0.80;;
32786;SDS011;19139;49.372;8.580;2024-03-29T04:25:55;1.83;;;0.77;;
32786;SDS011;19139;49.372;8.580;2024-03-29T04:28:21;1.27;;;0.77;;
32786;SDS011;19139;49.372;8.580;2024-03-29T04:30:51;1.67;;;0.97;;
32786;SDS011;19139;49.372;8.580;2024-03-29T04:33:18;1.13;;;0.57;;
32786;SDS011;19139;49.372;8.580;2024-03-29T04:35:53;1.17;;;0.67;;
32786;SDS011;19139;49.372;8.580;2024-03-29T04:38:25;2.47;;;0.70;;
32786;SDS011;19139;49.372;8.580;2024-03-29T04:40:52;1.67;;;1.10;;
32786;SDS011;19139;49.372;8.580;2024-03-29T04:43:21;1.40;;;0.57;;
32786;SDS011;19139;49.372;8.580;2024-03-29T04:45:48;0.90;;;0.53;;
32786;SDS011;19139;49.372;8.580;2024-03-29T04:48:14;2.10;;;0.60;;
32786;SDS011;19139;49.372;8.580;2024-03-29T04:50:40;1.10;;;0.60;;
32786;SDS011;19139;49.372;8.580;2024-03-29T04:53:07;1.03;;;0.60;;
32786;SDS011;19139;49.372;8.580;2024-03-29T04:55:34;0.70;;;0.60;;
32786;SDS011;19139;49.372;8.580;2024-03-29T04:58:00;1.03;;;0.70;;
32786;SDS011;19139;49.372;8.580;2024-03-29T05:00:27;1.87;;;0.80;;
32786;SDS011;19139;49.372;8.580;2024-03-29T05:02:53;0.97;;;0.67;;
32786;SDS011;19139;49.372;8.580;2024-03-29T05:05:19;1.47;;;0.40;;
32786;SDS011;19139;49.372;8.580;2024-03-29T05:07:44;1.63;;;0.80;;
32786;SDS011;19139;49.372;8.580;2024-03-29T05:10:10;1.00;;;0.70;;
32786;SDS011;19139;49.372;8.580;2024-03-29T05:12:37;0.70;;;0.60;;
32786;SDS011;19139;49.372;8.580;2024-03-29T05:15:03;1.63;;;0.90;;
32786;SDS011;19139;49.372;8.580;2024-03-29T05:17:29;1.20;;;0.70;;
32786;SDS011;19139;49.372;8.580;2024-03-29T05:19:55;1.13;;;0.50;;
32786;SDS011;19139;49.372;8.580;2024-03-29T05:22:21;1.57;;;0.60;;
32786;SDS011;19139;49.372;8.580;2024-03-29T05:24:47;1.00;;;0.80;;
32786;SDS011;19139;49.372;8.580;2024-03-29T05:27:15;1.13;;;0.60;;
32786;SDS011;19139;49.372;8.580;2024-03-29T05:29:41;0.93;;;0.70;;
32786;SDS011;19139;49.372;8.580;2024-03-29T05:32:07;2.17;;;0.70;;
32786;SDS011;19139;49.372;8.580;2024-03-29T05:34:32;2.03;;;0.47;;
32786;SDS011;19139;49.372;8.580;2024-03-29T05:36:58;1.33;;;0.80;;
32786;SDS011;19139;49.372;8.580;2024-03-29T05:39:24;1.73;;;0.50;;
32786;SDS011;19139;49.372;8.580;2024-03-29T05:41:50;2.33;;;0.80;;
32786;SDS011;19139;49.372;8.580;2024-03-29T05:44:15;1.27;;;0.70;;
32786;SDS011;19139;49.372;8.580;2024-03-29T05:46:42;1.30;;;0.57;;
32786;SDS011;19139;49.372;8.580;2024-03-29T05:49:08;2.23;;;0.83;;
32786;SDS011;19139;49.372;8.580;2024-03-29T05:51:34;1.30;;;0.73;;
32786;SDS011;19139;49.372;8.580;2024-03-29T05:54:00;1.57;;;0.70;;
32786;SDS011;19139;49.372;8.580;2024-03-29T05:56:26;1.37;;;0.83;;
32786;SDS011;19139;49.372;8.580;2024-03-29T05:58:51;0.80;;;0.50;;
32786;SDS011;19139;49.372;8.580;2024-03-29T06:01:17;1.47;;;0.60;;
32786;SDS011;19139;49.372;8.580;2024-03-29T06:03:43;2.13;;;0.80;;
32786;SDS011;19139;49.372;8.580;2024-03-29T06:06:09;1.93;;;0.80;;
32786;SDS011;19139;49.372;8.580;2024-03-29T06:08:42;0.97;;;0.60;;
32786;SDS011;19139;49.372;8.580;2024-03-29T06:11:08;1.57;;;0.70;;
32786;SDS011;19139;49.372;8.580;2024-03-29T06:13:34;0.77;;;0.50;;
32786;SDS011;19139;49.372;8.580;2024-03-29T06:16:22;1.53;;;0.80;;
32786;SDS011;19139;49.372;8.580;2024-03-29T06:19:10;2.03;;;0.77;;
32786;SDS011;19139;49.372;8.580;2024-03-29T06:21:36;2.57;;;0.70;;
32786;SDS011;19139;49.372;8.580;2024-03-29T06:24:08;0.80;;;0.70;;
32786;SDS011;19139;49.372;8.580;2024-03-29T06:26:39;1.60;;;0.80;;
32786;SDS011;19139;49.372;8.580;2024-03-29T06:29:05;1.10;;;0.60;;
32786;SDS011;19139;49.372;8.580;2024-03-29T06:31:34;0.73;;;0.43;;
32786;SDS011;19139;49.372;8.580;2024-03-29T06:34:00;1.03;;;0.70;;
32786;SDS011;19139;49.372;8.580;2024-03-29T06:36:26;1.43;;;0.63;;
32786;SDS011;19139;49.372;8.580;2024-03-29T06:38:53;1.20;;;0.77;;
32786;SDS011;19139;49.372;8.580;2024-03-29T06:41:19;0.97;;;0.60;;
32786;SDS011;19139;49.372;8.580;2024-03-29T06:43:45;1.17;;;0.60;;
32786;SDS011;19139;49.372;8.580;2024-03-29T06:46:12;2.30;;;0.60;;
32786;SDS011;19139;49.372;8.580;2024-03-29T06:48:38;1.63;;;0.73;;
32786;SDS011;19139;49.372;8.580;2024-03-29T06:51:04;0.90;;;0.67;;
32786;SDS011;19139;49.372;8.580;2024-03-29T06:53:30;1.33;;;0.70;;
32786;SDS011;19139;49.372;8.580;2024-03-29T06:55:56;0.83;;;0.57;;
32786;SDS011;19139;49.372;8.580;2024-03-29T06:58:22;0.63;;;0.50;;
32786;SDS011;19139;49.372;8.580;2024-03-29T07:00:48;1.23;;;0.53;;
32786;SDS011;19139;49.372;8.580;2024-03-29T07:03:15;0.97;;;0.80;;
32786;SDS011;19139;49.372;8.580;2024-03-29T07:05:42;0.97;;;0.60;;
32786;SDS011;19139;49.372;8.580;2024-03-29T07:08:08;2.63;;;0.70;;
32786;SDS011;19139;49.372;8.580;2024-03-29T07:10:33;1.07;;;0.77;;
32786;SDS011;19139;49.372;8.580;2024-03-29T07:12:59;0.90;;;0.60;;
32786;SDS011;19139;49.372;8.580;2024-03-29T07:15:25;0.90;;;0.70;;
32786;SDS011;19139;49.372;8.580;2024-03-29T07:17:51;1.77;;;0.97;;
32786;SDS011;19139;49.372;8.580;2024-03-29T07:20:17;0.47;;;0.43;;
32786;SDS011;19139;49.372;8.580;2024-03-29T07:22:43;0.80;;;0.50;;
32786;SDS011;19139;49.372;8.580;2024-03-29T07:25:10;1.07;;;0.60;;
32786;SDS011;19139;49.372;8.580;2024-03-29T07:27:36;0.80;;;0.60;;
32786;SDS011;19139;49.372;8.580;2024-03-29T07:30:02;1.03;;;0.83;;
32786;SDS011;19139;49.372;8.580;2024-03-29T07:32:33;1.43;;;0.60;;
32786;SDS011;19139;49.372;8.580;2024-03-29T07:34:59;1.50;;;0.67;;
32786;SDS011;19139;49.372;8.580;2024-03-29T07:37:25;1.50;;;0.70;;
32786;SDS011;19139;49.372;8.580;2024-03-29T07:39:51;2.40;;;0.90;;
32786;SDS011;19139;49.372;8.580;2024-03-29T07:42:17;1.00;;;0.67;;
32786;SDS011;19139;49.372;8.580;2024-03-29T07:44:44;0.93;;;0.70;;
32786;SDS011;19139;49.372;8.580;2024-03-29T07:47:10;0.93;;;0.50;;
32786;SDS011;19139;49.372;8.580;2024-03-29T07:49:38;0.70;;;0.63;;
32786;SDS011;19139;49.372;8.580;2024-03-29T07:52:04;0.97;;;0.70;;
32786;SDS011;19139;49.372;8.580;2024-03-29T07:54:31;1.20;;;0.70;;
32786;SDS011;19139;49.372;8.580;2024-03-29T07:56:57;1.77;;;0.70;;
32786;SDS011;19139;49.372;8.580;2024-03-29T07:59:23;0.70;;;0.70;;
32786;SDS011;19139;49.372;8.580;2024-03-29T08:01:49;1.93;;;0.73;;
32786;SDS011;19139;49.372;8.580;2024-03-29T08:04:18;1.63;;;0.90;;
32786;SDS011;19139;49.372;8.580;2024-03-29T08:06:43;2.10;;;0.90;;
32786;SDS011;19139;49.372;8.580;2024-03-29T08:09:09;2.23;;;1.07;;
32786;SDS011;19139;49.372;8.580;2024-03-29T08:11:35;2.87;;;0.90;;
32786;SDS011;19139;49.372;8.580;2024-03-29T08:14:01;1.27;;;0.87;;
32786;SDS011;19139;49.372;8.580;2024-03-29T08:16:27;2.37;;;0.80;;
32786;SDS011;19139;49.372;8.580;2024-03-29T08:18:53;1.20;;;0.80;;
32786;SDS011;19139;49.372;8.580;2024-03-29T08:21:19;1.30;;;0.90;;
32786;SDS011;19139;49.372;8.580;2024-03-29T08:23:44;2.57;;;2.37;;
32786;SDS011;19139;49.372;8.580;2024-03-29T08:26:12;1.73;;;1.60;;
32786;SDS011;19139;49.372;8.580;2024-03-29T08:28:38;1.57;;;1.10;;
32786;SDS011;19139;49.372;8.580;2024-03-29T08:31:05;2.37;;;1.00;;
32786;SDS011;19139;49.372;8.580;2024-03-29T08:33:34;1.63;;;1.20;;
32786;SDS011;19139;49.372;8.580;2024-03-29T08:36:06;2.30;;;1.40;;
32786;SDS011;19139;49.372;8.580;2024-03-29T08:38:33;3.03;;;1.10;;
32786;SDS011;19139;49.372;8.580;2024-03-29T08:41:00;1.20;;;1.00;;
32786;SDS011;19139;49.372;8.580;2024-03-29T08:43:26;1.63;;;1.10;;
32786;SDS011;19139;49.372;8.580;2024-03-29T08:45:52;3.03;;;1.00;;
32786;SDS011;19139;49.372;8.580;2024-03-29T08:48:18;1.40;;;0.97;;
32786;SDS011;19139;49.372;8.580;2024-03-29T08:50:44;3.57;;;1.30;;
32786;SDS011;19139;49.372;8.580;2024-03-29T08:53:10;2.37;;;1.20;;
32786;SDS011;19139;49.372;8.580;2024-03-29T08:55:35;1.93;;;1.00;;
32786;SDS011;19139;49.372;8.580;2024-03-29T08:58:03;1.30;;;0.70;;
32786;SDS011;19139;49.372;8.580;2024-03-29T09:00:29;3.10;;;1.10;;
32786;SDS011;19139;49.372;8.580;2024-03-29T09:02:56;1.93;;;0.80;;
32786;SDS011;19139;49.372;8.580;2024-03-29T09:05:22;4.20;;;1.90;;
32786;SDS011;19139;49.372;8.580;2024-03-29T09:07:51;1.97;;;1.57;;
32786;SDS011;19139;49.372;8.580;2024-03-29T09:10:17;3.27;;;1.60;;
32786;SDS011;19139;49.372;8.580;2024-03-29T09:12:43;4.47;;;1.90;;
32786;SDS011;19139;49.372;8.580;2024-03-29T09:15:09;2.60;;;2.17;;
32786;SDS011;19139;49.372;8.580;2024-03-29T09:17:41;3.33;;;1.57;;
32786;SDS011;19139;49.372;8.580;2024-03-29T09:20:08;2.40;;;1.47;;
32786;SDS011;19139;49.372;8.580;2024-03-29T09:22:34;2.40;;;1.50;;
32786;SDS011;19139;49.372;8.580;2024-03-29T09:25:00;1.83;;;1.23;;
32786;SDS011;19139;49.372;8.580;2024-03-29T09:27:27;3.23;;;1.30;;
32786;SDS011;19139;49.372;8.580;2024-03-29T09:29:54;5.07;;;3.67;;
32786;SDS011;19139;49.372;8.580;2024-03-29T09:32:24;2.97;;;2.07;;
32786;SDS011;19139;49.372;8.580;2024-03-29T09:34:49;2.33;;;1.30;;
32786;SDS011;19139;49.372;8.580;2024-03-29T09:37:15;2.23;;;1.00;;
32786;SDS011;19139;49.372;8.580;2024-03-29T09:39:43;3.23;;;1.30;;
32786;SDS011;19139;49.372;8.580;2024-03-29T09:42:09;2.20;;;1.37;;
32786;SDS011;19139;49.372;8.580;2024-03-29T09:44:40;2.87;;;1.43;;
32786;SDS011;19139;49.372;8.580;2024-03-29T09:47:09;3.23;;;1.63;;
32786;SDS011;19139;49.372;8.580;2024-03-29T09:49:37;3.73;;;1.30;;
32786;SDS011;19139;49.372;8.580;2024-03-29T09:52:05;3.07;;;1.83;;
32786;SDS011;19139;49.372;8.580;2024-03-29T09:54:33;2.90;;;1.57;;
32786;SDS011;19139;49.372;8.580;2024-03-29T09:56:58;2.30;;;1.80;;
32786;SDS011;19139;49.372;8.580;2024-03-29T09:59:24;3.20;;;2.17;;
32786;SDS011;19139;49.372;8.580;2024-03-29T10:01:54;2.03;;;1.60;;
32786;SDS011;19139;49.372;8.580;2024-03-29T10:04:21;3.73;;;1.67;;
32786;SDS011;19139;49.372;8.580;2024-03-29T10:06:49;4.10;;;1.63;;
32786;SDS011;19139;49.372;8.580;2024-03-29T10:09:20;2.30;;;1.70;;
32786;SDS011;19139;49.372;8.580;2024-03-29T10:11:47;3.87;;;1.50;;
32786;SDS011;19139;49.372;8.580;2024-03-29T10:14:13;1.70;;;1.17;;
32786;SDS011;19139;49.372;8.580;2024-03-29T10:16:39;1.70;;;1.40;;
32786;SDS011;19139;49.372;8.580;2024-03-29T10:19:07;3.30;;;1.33;;
32786;SDS011;19139;49.372;8.580;2024-03-29T10:21:33;2.13;;;1.47;;
32786;SDS011;19139;49.372;8.580;2024-03-29T10:24:22;1.80;;;1.50;;
32786;SDS011;19139;49.372;8.580;2024-03-29T10:26:47;3.37;;;1.70;;
32786;SDS011;19139;49.372;8.580;2024-03-29T10:29:13;3.50;;;1.70;;
32786;SDS011;19139;49.372;8.580;2024-03-29T10:31:39;3.50;;;1.53;;
32786;SDS011;19139;49.372;8.580;2024-03-29T10:34:05;3.40;;;2.63;;
32786;SDS011;19139;49.372;8.580;2024-03-29T10:36:31;14.67;;;9.97;;
32786;SDS011;19139;49.372;8.580;2024-03-29T10:39:10;5.20;;;3.33;;
32786;SDS011;19139;49.372;8.580;2024-03-29T10:41:38;3.73;;;2.07;;
32786;SDS011;19139;49.372;8.580;2024-03-29T10:44:05;4.97;;;1.80;;
32786;SDS011;19139;49.372;8.580;2024-03-29T10:46:37;3.93;;;1.77;;
32786;SDS011;19139;49.372;8.580;2024-03-29T10:49:10;2.33;;;1.30;;
32786;SDS011;19139;49.372;8.580;2024-03-29T10:51:38;2.80;;;1.83;;
32786;SDS011;19139;49.372;8.580;2024-03-29T10:54:05;1.80;;;1.60;;
32786;SDS011;19139;49.372;8.580;2024-03-29T10:56:35;2.50;;;1.80;;
32786;SDS011;19139;49.372;8.580;2024-03-29T10:59:03;2.27;;;1.50;;
32786;SDS011;19139;49.372;8.580;2024-03-29T11:01:43;2.00;;;1.57;;
32786;SDS011;19139;49.372;8.580;2024-03-29T11:04:22;2.93;;;1.80;;
32786;SDS011;19139;49.372;8.580;2024-03-29T11:06:51;3.20;;;2.10;;
32786;SDS011;19139;49.372;8.580;2024-03-29T11:09:20;2.60;;;1.53;;
32786;SDS011;19139;49.372;8.580;2024-03-29T11:11:48;4.13;;;1.63;;
32786;SDS011;19139;49.372;8.580;2024-03-29T11:14:18;2.73;;;1.73;;
32786;SDS011;19139;49.372;8.580;2024-03-29T11:16:49;2.40;;;1.80;;
32786;SDS011;19139;49.372;8.580;2024-03-29T11:19:18;2.97;;;2.00;;
32786;SDS011;19139;49.372;8.580;2024-03-29T11:21:44;4.33;;;1.70;;
32786;SDS011;19139;49.372;8.580;2024-03-29T11:24:13;3.30;;;1.97;;
32786;SDS011;19139;49.372;8.580;2024-03-29T11:26:45;2.80;;;2.30;;
32786;SDS011;19139;49.372;8.580;2024-03-29T11:29:21;2.97;;;1.70;;
32786;SDS011;19139;49.372;8.580;2024-03-29T11:31:48;1.93;;;1.53;;
32786;SDS011;19139;49.372;8.580;2024-03-29T11:34:22;3.70;;;1.83;;
32786;SDS011;19139;49.372;8.580;2024-03-29T11:36:48;2.83;;;1.63;;
32786;SDS011;19139;49.372;8.580;2024-03-29T11:39:23;2.73;;;1.53;;
32786;SDS011;19139;49.372;8.580;2024-03-29T11:41:49;1.70;;;1.50;;
32786;SDS011;19139;49.372;8.580;2024-03-29T11:44:15;4.57;;;1.90;;
32786;SDS011;19139;49.372;8.580;2024-03-29T11:46:45;1.97;;;1.77;;
32786;SDS011;19139;49.372;8.580;2024-03-29T11:49:13;3.17;;;1.90;;
32786;SDS011;19139;49.372;8.580;2024-03-29T11:51:40;3.60;;;1.80;;
32786;SDS011;19139;49.372;8.580;2024-03-29T11:54:06;1.40;;;1.03;;
32786;SDS011;19139;49.372;8.580;2024-03-29T11:56:32;4.07;;;2.63;;
32786;SDS011;19139;49.372;8.580;2024-03-29T11:58:58;2.37;;;2.13;;
32786;SDS011;19139;49.372;8.580;2024-03-29T12:01:25;15.13;;;13.83;;
32786;SDS011;19139;49.372;8.580;2024-03-29T12:03:53;5.50;;;4.13;;
32786;SDS011;19139;49.372;8.580;2024-03-29T12:06:20;2.37;;;1.83;;
32786;SDS011;19139;49.372;8.580;2024-03-29T12:08:46;3.37;;;2.67;;
32786;SDS011;19139;49.372;8.580;2024-03-29T12:11:13;4.53;;;1.83;;
32786;SDS011;19139;49.372;8.580;2024-03-29T12:13:39;2.27;;;1.80;;
32786;SDS011;19139;49.372;8.580;2024-03-29T12:16:06;2.43;;;1.90;;
32786;SDS011;19139;49.372;8.580;2024-03-29T12:18:33;3.17;;;2.00;;
32786;SDS011;19139;49.372;8.580;2024-03-29T12:21:00;3.67;;;2.30;;
32786;SDS011;19139;49.372;8.580;2024-03-29T12:23:26;2.60;;;1.40;;
32786;SDS011;19139;49.372;8.580;2024-03-29T12:25:57;3.37;;;1.60;;
32786;SDS011;19139;49.372;8.580;2024-03-29T12:28:24;3.13;;;1.70;;
32786;SDS011;19139;49.372;8.580;2024-03-29T12:30:51;2.10;;;1.40;;
32786;SDS011;19139;49.372;8.580;2024-03-29T12:33:19;5.00;;;1.80;;
32786;SDS011;19139;49.372;8.580;2024-03-29T12:35:45;2.93;;;1.70;;
32786;SDS011;19139;49.372;8.580;2024-03-29T12:38:16;3.50;;;2.07;;
32786;SDS011;19139;49.372;8.580;2024-03-29T12:40:43;2.20;;;2.00;;
32786;SDS011;19139;49.372;8.580;2024-03-29T12:43:13;5.43;;;2.33;;
32786;SDS011;19139;49.372;8.580;2024-03-29T12:45:42;3.30;;;2.67;;
32786;SDS011;19139;49.372;8.580;2024-03-29T12:48:12;4.33;;;3.33;;
32786;SDS011;19139;49.372;8.580;2024-03-29T12:50:43;3.87;;;3.17;;
32786;SDS011;19139;49.372;8.580;2024-03-29T12:53:11;3.93;;;2.93;;
32786;SDS011;19139;49.372;8.580;2024-03-29T12:55:41;4.10;;;3.00;;
32786;SDS011;19139;49.372;8.580;2024-03-29T12:58:11;4.37;;;2.97;;
32786;SDS011;19139;49.372;8.580;2024-03-29T13:00:42;7.50;;;3.70;;
32786;SDS011;19139;49.372;8.580;2024-03-29T13:03:08;4.73;;;3.40;;
32786;SDS011;19139;49.372;8.580;2024-03-29T13:05:34;5.67;;;3.50;;
32786;SDS011;19139;49.372;8.580;2024-03-29T13:08:05;5.00;;;3.13;;
32786;SDS011;19139;49.372;8.580;2024-03-29T13:10:32;7.63;;;3.60;;
32786;SDS011;19139;49.372;8.580;2024-03-29T13:12:58;4.97;;;3.57;;
32786;SDS011;19139;49.372;8.580;2024-03-29T13:15:24;4.17;;;3.17;;
32786;SDS011;19139;49.372;8.580;2024-03-29T13:17:52;5.70;;;4.40;;
32786;SDS011;19139;49.372;8.580;2024-03-29T13:20:20;5.67;;;4.90;;
32786;SDS011;19139;49.372;8.580;2024-03-29T13:22:47;6.57;;;4.43;;
32786;SDS011;19139;49.372;8.580;2024-03-29T13:25:15;6.67;;;4.60;;
32786;SDS011;19139;49.372;8.580;2024-03-29T13:27:42;8.13;;;4.30;;
32786;SDS011;19139;49.372;8.580;2024-03-29T13:30:10;7.43;;;5.33;;
32786;SDS011;19139;49.372;8.580;2024-03-29T13:32:37;6.37;;;5.03;;
32786;SDS011;19139;49.372;8.580;2024-03-29T13:35:11;12.63;;;5.87;;
32786;SDS011;19139;49.372;8.580;2024-03-29T13:37:44;5.97;;;5.37;;
32786;SDS011;19139;49.372;8.580;2024-03-29T13:40:14;8.23;;;5.73;;
32786;SDS011;19139;49.372;8.580;2024-03-29T13:42:41;6.20;;;5.60;;
32786;SDS011;19139;49.372;8.580;2024-03-29T13:45:08;7.73;;;6.23;;
32786;SDS011;19139;49.372;8.580;2024-03-29T13:47:38;10.23;;;7.00;;
32786;SDS011;19139;49.372;8.580;2024-03-29T13:50:05;9.00;;;7.13;;
32786;SDS011;19139;49.372;8.580;2024-03-29T13:52:32;11.00;;;7.60;;
32786;SDS011;19139;49.372;8.580;2024-03-29T13:54:58;10.37;;;7.87;;
32786;SDS011;19139;49.372;8.580;2024-03-29T13:57:24;9.67;;;8.17;;
32786;SDS011;19139;49.372;8.580;2024-03-29T13:59:50;10.93;;;8.70;;
32786;SDS011;19139;49.372;8.580;2024-03-29T14:02:17;11.33;;;9.10;;
32786;SDS011;19139;49.372;8.580;2024-03-29T14:04:44;11.47;;;8.57;;
32786;SDS011;19139;49.372;8.580;2024-03-29T14:07:11;10.10;;;9.10;;
32786;SDS011;19139;49.372;8.580;2024-03-29T14:09:39;10.70;;;9.33;;
32786;SDS011;19139;49.372;8.580;2024-03-29T14:12:08;10.70;;;9.60;;
32786;SDS011;19139;49.372;8.580;2024-03-29T14:14:35;9.30;;;7.90;;
32786;SDS011;19139;49.372;8.580;2024-03-29T14:17:02;10.83;;;9.47;;
32786;SDS011;19139;49.372;8.580;2024-03-29T14:19:38;9.17;;;8.10;;
32786;SDS011;19139;49.372;8.580;2024-03-29T14:22:04;10.13;;;8.63;;
32786;SDS011;19139;49.372;8.580;2024-03-29T14:24:31;10.07;;;9.03;;
32786;SDS011;19139;49.372;8.580;2024-03-29T14:27:01;11.10;;;9.33;;
32786;SDS011;19139;49.372;8.580;2024-03-29T14:29:31;10.20;;;8.80;;
32786;SDS011;19139;49.372;8.580;2024-03-29T14:31:57;9.60;;;8.70;;
32786;SDS011;19139;49.372;8.580;2024-03-29T14:34:23;9.40;;;8.13;;
32786;SDS011;19139;49.372;8.580;2024-03-29T14:36:50;10.10;;;7.83;;
32786;SDS011;19139;49.372;8.580;2024-03-29T14:39:20;11.13;;;7.57;;
32786;SDS011;19139;49.372;8.580;2024-03-29T14:41:47;6.37;;;5.77;;
32786;SDS011;19139;49.372;8.580;2024-03-29T14:44:15;6.70;;;5.10;;
32786;SDS011;19139;49.372;8.580;2024-03-29T14:46:42;6.83;;;5.50;;
32786;SDS011;19139;49.372;8.580;2024-03-29T14:49:08;6.63;;;6.00;;
32786;SDS011;19139;49.372;8.580;2024-03-29T14:51:37;6.53;;;5.60;;